createdAt,value
2019-03-11T00:00:23.010Z,3.64
2019-03-11T00:01:23.060Z,3.67
2019-03-11T00:02:23.110Z,3.88
2019-03-11T00:03:23.161Z,3.86
2019-03-11T00:04:24.157Z,3.82
2019-03-11T00:05:23.263Z,3.93
2019-03-11T00:06:23.315Z,4.14
2019-03-11T00:07:23.364Z,4.14
2019-03-11T00:08:23.414Z,4.32
2019-03-11T00:09:23.466Z,3.99
2019-03-11T00:10:23.515Z,3.84
2019-03-11T00:11:23.567Z,3.70
2019-03-11T00:12:23.619Z,3.67
2019-03-11T00:13:23.669Z,3.92
2019-03-11T00:14:23.719Z,3.80
2019-03-11T00:15:23.885Z,3.93
2019-03-11T00:16:23.824Z,3.78
2019-03-11T00:17:23.871Z,3.75
2019-03-11T00:18:23.924Z,3.84
2019-03-11T00:19:23.972Z,3.98
2019-03-11T00:20:24.024Z,4.42
2019-03-11T00:21:24.707Z,4.42
2019-03-11T00:22:24.126Z,4.24
2019-03-11T00:23:24.177Z,4.29
2019-03-11T00:24:24.227Z,4.43
2019-03-11T00:25:24.278Z,4.31
2019-03-11T00:26:24.327Z,4.28
2019-03-11T00:27:24.379Z,4.24
2019-03-11T00:28:24.439Z,4.35
2019-03-11T00:29:24.482Z,4.38
2019-03-11T00:30:24.534Z,4.42
2019-03-11T00:31:24.582Z,4.61
2019-03-11T00:32:24.633Z,4.67
2019-03-11T00:33:24.684Z,4.67
2019-03-11T00:34:24.736Z,4.75
2019-03-11T00:35:24.788Z,4.54
2019-03-11T00:36:24.863Z,4.91
2019-03-11T00:37:24.888Z,5.33
2019-03-11T00:38:24.938Z,5.75
2019-03-11T00:39:24.989Z,5.70
2019-03-11T00:40:25.041Z,5.66
2019-03-11T00:41:25.092Z,5.69
2019-03-11T00:42:25.142Z,5.70
2019-03-11T00:43:25.248Z,5.77
2019-03-11T00:44:25.244Z,5.75
2019-03-11T00:45:25.823Z,5.73
2019-03-11T00:46:25.950Z,5.60
2019-03-11T00:47:25.401Z,5.60
2019-03-11T00:48:25.449Z,5.51
2019-03-11T00:49:25.500Z,5.55
2019-03-11T00:50:25.552Z,5.59
2019-03-11T00:51:25.609Z,5.45
2019-03-11T00:52:25.694Z,5.56
2019-03-11T00:53:25.707Z,5.52
2019-03-11T00:54:25.756Z,5.45
2019-03-11T00:55:25.808Z,5.33
2019-03-11T00:56:25.865Z,5.41
2019-03-11T00:57:25.910Z,5.37
2019-03-11T00:58:25.963Z,5.33
2019-03-11T00:59:26.012Z,5.37
2019-03-11T01:00:26.066Z,5.38
2019-03-11T01:01:26.118Z,5.40
2019-03-11T01:02:26.169Z,5.32
2019-03-11T01:03:26.219Z,5.23
2019-03-11T01:04:26.271Z,5.22
2019-03-11T01:05:26.323Z,5.20
2019-03-11T01:06:26.374Z,5.15
2019-03-11T01:07:26.431Z,5.14
2019-03-11T01:08:29.020Z,5.15
2019-03-11T01:09:26.529Z,4.99
2019-03-11T01:10:26.581Z,5.06
2019-03-11T01:11:26.631Z,4.96
2019-03-11T01:12:26.682Z,5.11
2019-03-11T01:13:26.735Z,5.11
2019-03-11T01:14:26.786Z,5.14
2019-03-11T01:15:26.838Z,5.17
2019-03-11T01:16:26.892Z,5.20
2019-03-11T01:17:26.944Z,5.17
2019-03-11T01:18:27.021Z,5.09
2019-03-11T01:19:27.043Z,5.06
2019-03-11T01:20:27.094Z,4.93
2019-03-11T01:21:27.147Z,4.93
2019-03-11T01:22:27.199Z,4.96
2019-03-11T01:23:27.250Z,4.91
2019-03-11T01:24:27.302Z,4.91
2019-03-11T01:25:27.376Z,4.88
2019-03-11T01:26:27.404Z,4.77
2019-03-11T01:27:27.455Z,4.75
2019-03-11T01:28:27.510Z,4.69
2019-03-11T01:29:27.561Z,4.83
2019-03-11T01:30:27.609Z,4.88
2019-03-11T01:31:27.661Z,5.01
2019-03-11T01:32:27.714Z,4.93
2019-03-11T01:33:27.767Z,4.90
2019-03-11T01:34:27.815Z,5.04
2019-03-11T01:35:27.868Z,5.15
2019-03-11T01:36:27.918Z,5.15
2019-03-11T01:37:27.974Z,5.29
2019-03-11T01:38:28.019Z,5.51
2019-03-11T01:39:28.073Z,5.74
2019-03-11T01:40:28.125Z,5.65
2019-03-11T01:41:28.175Z,5.66
2019-03-11T01:42:28.232Z,5.59
2019-03-11T01:43:28.278Z,5.38
2019-03-11T01:44:28.329Z,5.22
2019-03-11T01:45:28.381Z,5.20
2019-03-11T01:46:28.433Z,5.63
2019-03-11T01:47:28.484Z,5.83
2019-03-11T01:48:28.538Z,5.95
2019-03-11T01:49:28.588Z,6.06
2019-03-11T01:50:28.639Z,6.17
2019-03-11T01:51:28.691Z,6.30
2019-03-11T01:52:28.742Z,6.19
2019-03-11T01:53:28.793Z,6.05
2019-03-11T01:54:28.847Z,5.73
2019-03-11T01:55:28.895Z,5.30
2019-03-11T01:56:28.949Z,5.37
2019-03-11T01:57:29.000Z,5.51
2019-03-11T01:58:29.052Z,5.65
2019-03-11T01:59:29.102Z,5.81
2019-03-11T02:00:29.154Z,5.99
2019-03-11T02:01:29.206Z,5.99
2019-03-11T02:02:29.257Z,5.93
2019-03-11T02:03:29.309Z,5.80
2019-03-11T02:04:29.370Z,5.73
2019-03-11T02:05:29.412Z,5.70
2019-03-11T02:06:29.463Z,5.99
2019-03-11T02:07:29.514Z,6.02
2019-03-11T02:08:29.567Z,6.06
2019-03-11T02:09:29.618Z,6.21
2019-03-11T02:10:29.670Z,6.33
2019-03-11T02:11:29.724Z,6.39
2019-03-11T02:12:29.774Z,6.43
2019-03-11T02:13:29.826Z,6.46
2019-03-11T02:14:29.875Z,6.38
2019-03-11T02:15:29.929Z,6.42
2019-03-11T02:16:29.981Z,6.45
2019-03-11T02:17:30.033Z,6.43
2019-03-11T02:18:30.084Z,6.58
2019-03-11T02:19:30.136Z,6.58
2019-03-11T02:20:30.189Z,6.53
2019-03-11T02:21:30.238Z,6.69
2019-03-11T02:22:30.290Z,6.61
2019-03-11T02:23:30.343Z,6.57
2019-03-11T02:24:30.394Z,6.51
2019-03-11T02:25:30.448Z,6.60
2019-03-11T02:26:30.497Z,6.55
2019-03-11T02:27:30.555Z,6.64
2019-03-11T02:28:30.602Z,6.69
2019-03-11T02:29:30.653Z,6.65
2019-03-11T02:30:30.707Z,6.71
2019-03-11T02:31:30.759Z,6.72
2019-03-11T02:32:30.815Z,6.71
2019-03-11T02:33:31.194Z,6.71
2019-03-11T02:34:30.924Z,6.72
2019-03-11T02:35:30.981Z,6.69
2019-03-11T02:36:31.022Z,6.65
2019-03-11T02:37:31.073Z,6.65
2019-03-11T02:38:31.124Z,6.81
2019-03-11T02:39:31.174Z,6.81
2019-03-11T02:40:31.276Z,6.90
2019-03-11T02:41:31.280Z,6.81
2019-03-11T02:42:31.332Z,6.83
2019-03-11T02:43:31.384Z,6.71
2019-03-11T02:44:31.437Z,6.75
2019-03-11T02:45:31.487Z,6.68
2019-03-11T02:46:31.539Z,6.60
2019-03-11T02:47:31.593Z,6.57
2019-03-11T02:48:32.030Z,6.55
2019-03-11T02:49:31.698Z,6.54
2019-03-11T02:50:31.751Z,6.55
2019-03-11T02:51:31.801Z,6.43
2019-03-11T02:52:31.871Z,6.53
2019-03-11T02:53:31.907Z,6.57
2019-03-11T02:54:31.956Z,6.51
2019-03-11T02:55:32.008Z,6.43
2019-03-11T02:56:32.061Z,6.36
2019-03-11T02:57:32.117Z,6.35
2019-03-11T02:58:32.166Z,6.38
2019-03-11T02:59:32.392Z,6.40
2019-03-11T03:00:32.271Z,6.35
2019-03-11T03:01:32.323Z,6.35
2019-03-11T03:02:32.374Z,6.46
2019-03-11T03:03:32.427Z,6.36
2019-03-11T03:04:32.480Z,6.38
2019-03-11T03:05:32.533Z,6.36
2019-03-11T03:06:32.589Z,6.45
2019-03-11T03:07:32.635Z,6.50
2019-03-11T03:08:32.686Z,6.53
2019-03-11T03:09:32.742Z,6.48
2019-03-11T03:10:32.790Z,6.43
2019-03-11T03:11:32.843Z,6.48
2019-03-11T03:12:32.897Z,6.50
2019-03-11T03:13:32.947Z,6.45
2019-03-11T03:14:33.003Z,6.43
2019-03-11T03:15:33.053Z,6.48
2019-03-11T03:16:33.111Z,6.48
2019-03-11T03:17:33.157Z,6.48
2019-03-11T03:18:33.551Z,6.43
2019-03-11T03:19:33.262Z,6.50
2019-03-11T03:20:33.312Z,6.46
2019-03-11T03:21:33.365Z,6.46
2019-03-11T03:22:33.415Z,6.40
2019-03-11T03:23:33.467Z,6.39
2019-03-11T03:24:33.531Z,6.30
2019-03-11T03:25:35.090Z,6.21
2019-03-11T03:26:33.623Z,6.27
2019-03-11T03:27:33.812Z,6.20
2019-03-11T03:28:33.731Z,6.14
2019-03-11T03:29:33.783Z,6.19
2019-03-11T03:30:33.845Z,6.17
2019-03-11T03:31:33.900Z,6.16
2019-03-11T03:32:33.966Z,6.10
2019-03-11T03:33:34.028Z,6.05
2019-03-11T03:34:34.108Z,6.06
2019-03-11T03:35:34.092Z,6.08
2019-03-11T03:36:34.146Z,5.95
2019-03-11T03:37:34.197Z,5.99
2019-03-11T03:38:34.251Z,6.10
2019-03-11T03:39:34.300Z,6.13
2019-03-11T03:40:34.355Z,6.03
2019-03-11T03:41:34.407Z,5.87
2019-03-11T03:42:34.512Z,5.83
2019-03-11T03:43:34.507Z,5.92
2019-03-11T03:44:34.561Z,5.99
2019-03-11T03:45:34.613Z,6.08
2019-03-11T03:46:34.662Z,5.96
2019-03-11T03:47:34.716Z,5.98
2019-03-11T03:48:34.848Z,5.88
2019-03-11T03:49:34.821Z,5.92
2019-03-11T03:50:34.872Z,5.88
2019-03-11T03:51:34.924Z,5.88
2019-03-11T03:52:34.976Z,5.85
2019-03-11T03:53:35.027Z,5.80
2019-03-11T03:54:35.078Z,5.87
2019-03-11T03:55:35.135Z,5.81
2019-03-11T03:56:35.182Z,5.75
2019-03-11T03:57:35.235Z,5.85
2019-03-11T03:58:35.621Z,5.84
2019-03-11T03:59:35.345Z,5.88
2019-03-11T04:00:35.390Z,5.87
2019-03-11T04:01:35.444Z,5.84
2019-03-11T04:02:35.497Z,5.80
2019-03-11T04:03:35.544Z,5.78
2019-03-11T04:04:35.597Z,5.81
2019-03-11T04:05:35.649Z,5.84
2019-03-11T04:06:35.710Z,5.85
2019-03-11T04:07:35.755Z,5.78
2019-03-11T04:08:35.804Z,5.78
2019-03-11T04:09:35.880Z,5.70
2019-03-11T04:10:35.913Z,5.81
2019-03-11T04:11:35.959Z,5.83
2019-03-11T04:12:36.010Z,5.78
2019-03-11T04:13:36.063Z,5.80
2019-03-11T04:14:36.120Z,5.73
2019-03-11T04:15:36.168Z,5.77
2019-03-11T04:16:36.530Z,5.73
2019-03-11T04:17:36.271Z,5.74
2019-03-11T04:18:36.321Z,5.70
2019-03-11T04:19:36.375Z,5.78
2019-03-11T04:20:36.426Z,5.73
2019-03-11T04:21:36.481Z,5.74
2019-03-11T04:22:36.530Z,5.69
2019-03-11T04:23:36.582Z,5.70
2019-03-11T04:24:36.640Z,5.74
2019-03-11T04:25:36.686Z,5.73
2019-03-11T04:26:36.742Z,5.77
2019-03-11T04:27:36.791Z,5.77
2019-03-11T04:28:36.843Z,5.69
2019-03-11T04:29:36.895Z,5.78
2019-03-11T04:30:36.941Z,5.80
2019-03-11T04:31:36.994Z,5.81
2019-03-11T04:32:37.048Z,5.75
2019-03-11T04:33:37.099Z,5.77
2019-03-11T04:34:37.149Z,5.77
2019-03-11T04:35:37.203Z,5.78
2019-03-11T04:36:37.256Z,5.75
2019-03-11T04:37:37.305Z,5.81
2019-03-11T04:38:37.356Z,5.78
2019-03-11T04:39:37.408Z,5.78
2019-03-11T04:40:37.459Z,5.81
2019-03-11T04:41:37.511Z,5.78
2019-03-11T04:42:37.563Z,5.80
2019-03-11T04:43:37.615Z,5.87
2019-03-11T04:44:37.667Z,5.84
2019-03-11T04:45:37.718Z,5.74
2019-03-11T04:46:38.147Z,5.80
2019-03-11T04:47:37.881Z,5.81
2019-03-11T04:48:37.873Z,5.80
2019-03-11T04:49:37.926Z,5.78
2019-03-11T04:50:37.978Z,5.77
2019-03-11T04:51:38.030Z,5.83
2019-03-11T04:52:38.083Z,5.81
2019-03-11T04:53:38.133Z,5.77
2019-03-11T04:54:38.184Z,5.88
2019-03-11T04:55:38.237Z,5.88
2019-03-11T04:56:38.291Z,5.84
2019-03-11T04:57:38.345Z,5.81
2019-03-11T04:58:38.392Z,5.83
2019-03-11T04:59:38.446Z,5.90
2019-03-11T05:00:38.495Z,5.87
2019-03-11T05:01:38.622Z,5.87
2019-03-11T05:02:38.613Z,5.88
2019-03-11T05:03:38.650Z,5.87
2019-03-11T05:04:38.705Z,5.74
2019-03-11T05:05:38.756Z,5.83
2019-03-11T05:06:38.808Z,5.80
2019-03-11T05:07:38.858Z,5.80
2019-03-11T05:08:38.910Z,5.81
2019-03-11T05:09:38.963Z,5.80
2019-03-11T05:10:39.015Z,5.81
2019-03-11T05:11:39.067Z,5.74
2019-03-11T05:12:39.119Z,5.77
2019-03-11T05:13:39.173Z,5.77
2019-03-11T05:14:39.223Z,5.80
2019-03-11T05:15:39.281Z,5.78
2019-03-11T05:16:39.327Z,5.77
2019-03-11T05:17:39.378Z,5.75
2019-03-11T05:18:39.429Z,5.80
2019-03-11T05:19:39.483Z,5.81
2019-03-11T05:20:39.534Z,5.77
2019-03-11T05:21:39.586Z,5.81
2019-03-11T05:22:39.637Z,5.70
2019-03-11T05:23:39.689Z,5.62
2019-03-11T05:24:39.745Z,5.60
2019-03-11T05:25:39.793Z,5.55
2019-03-11T05:26:39.844Z,5.60
2019-03-11T05:27:39.896Z,5.66
2019-03-11T05:28:39.949Z,5.62
2019-03-11T05:29:40.001Z,5.65
2019-03-11T05:30:40.053Z,5.66
2019-03-11T05:31:40.105Z,5.78
2019-03-11T05:32:40.156Z,5.78
2019-03-11T05:33:40.210Z,5.78
2019-03-11T05:34:40.260Z,5.75
2019-03-11T05:35:40.313Z,5.73
2019-03-11T05:36:40.366Z,5.74
2019-03-11T05:37:40.417Z,5.75
2019-03-11T05:38:40.468Z,5.78
2019-03-11T05:39:40.521Z,5.70
2019-03-11T05:40:40.571Z,5.73
2019-03-11T05:41:40.624Z,5.70
2019-03-11T05:42:40.676Z,5.70
2019-03-11T05:43:40.757Z,5.84
2019-03-11T05:44:40.779Z,5.77
2019-03-11T05:45:40.832Z,5.74
2019-03-11T05:46:40.886Z,5.73
2019-03-11T05:47:40.935Z,5.73
2019-03-11T05:48:40.987Z,5.74
2019-03-11T05:49:41.046Z,5.70
2019-03-11T05:50:41.090Z,5.77
2019-03-11T05:51:41.143Z,5.75
2019-03-11T05:52:41.195Z,5.70
2019-03-11T05:53:41.249Z,5.78
2019-03-11T05:54:41.297Z,5.66
2019-03-11T05:55:41.372Z,5.69
2019-03-11T05:56:41.403Z,5.73
2019-03-11T05:57:41.455Z,5.69
2019-03-11T05:58:41.505Z,5.67
2019-03-11T05:59:41.557Z,5.63
2019-03-11T06:00:41.610Z,5.69
2019-03-11T06:01:41.662Z,5.59
2019-03-11T06:02:41.713Z,5.60
2019-03-11T06:03:41.768Z,5.58
2019-03-11T06:04:41.820Z,5.56
2019-03-11T06:05:41.877Z,5.60
2019-03-11T06:06:41.922Z,5.62
2019-03-11T06:07:42.685Z,5.65
2019-03-11T06:08:42.023Z,5.47
2019-03-11T06:09:42.077Z,5.45
2019-03-11T06:10:42.130Z,5.56
2019-03-11T06:11:42.179Z,5.48
2019-03-11T06:12:42.248Z,5.48
2019-03-11T06:13:42.331Z,5.45
2019-03-11T06:14:42.354Z,5.49
2019-03-11T06:15:42.386Z,5.44
2019-03-11T06:16:42.438Z,5.47
2019-03-11T06:17:42.639Z,5.41
2019-03-11T06:18:44.412Z,5.35
2019-03-11T06:19:42.596Z,5.35
2019-03-11T06:20:42.648Z,5.32
2019-03-11T06:21:42.697Z,5.40
2019-03-11T06:22:42.749Z,5.47
2019-03-11T06:23:42.799Z,5.44
2019-03-11T06:24:42.856Z,5.48
2019-03-11T06:25:42.907Z,5.44
2019-03-11T06:26:42.954Z,5.45
2019-03-11T06:27:43.007Z,5.44
2019-03-11T06:28:43.060Z,5.42
2019-03-11T06:29:43.110Z,5.47
2019-03-11T06:30:43.162Z,5.51
2019-03-11T06:31:43.215Z,5.49
2019-03-11T06:32:43.267Z,5.60
2019-03-11T06:33:43.319Z,5.56
2019-03-11T06:34:43.381Z,5.56
2019-03-11T06:35:43.422Z,5.59
2019-03-11T06:36:43.473Z,5.58
2019-03-11T06:37:43.525Z,5.66
2019-03-11T06:38:43.577Z,5.65
2019-03-11T06:39:44.037Z,5.65
2019-03-11T06:40:45.892Z,5.67
2019-03-11T06:41:43.734Z,5.63
2019-03-11T06:42:43.788Z,5.77
2019-03-11T06:43:43.837Z,5.77
2019-03-11T06:44:43.889Z,5.81
2019-03-11T06:45:43.954Z,5.78
2019-03-11T06:46:45.893Z,5.77
2019-03-11T06:47:44.044Z,5.87
2019-03-11T06:48:44.098Z,5.84
2019-03-11T06:49:44.152Z,5.84
2019-03-11T06:50:44.203Z,5.83
2019-03-11T06:51:44.255Z,5.85
2019-03-11T06:52:44.305Z,5.81
2019-03-11T06:53:44.357Z,5.80
2019-03-11T06:54:44.409Z,5.78
2019-03-11T06:55:44.461Z,5.78
2019-03-11T06:56:44.515Z,5.83
2019-03-11T06:57:44.570Z,5.78
2019-03-11T06:58:44.616Z,5.77
2019-03-11T06:59:44.685Z,5.80
2019-03-11T07:00:44.723Z,5.70
2019-03-11T07:01:44.775Z,5.75
2019-03-11T07:02:44.826Z,5.70
2019-03-11T07:03:45.271Z,5.70
2019-03-11T07:04:44.930Z,5.69
2019-03-11T07:05:44.983Z,5.69
2019-03-11T07:06:45.034Z,5.66
2019-03-11T07:07:45.087Z,5.65
2019-03-11T07:08:45.140Z,5.63
2019-03-11T07:09:45.193Z,5.55
2019-03-11T07:10:45.245Z,5.62
2019-03-11T07:11:45.294Z,5.63
2019-03-11T07:12:45.347Z,5.58
2019-03-11T07:13:45.399Z,5.65
2019-03-11T07:14:45.452Z,5.66
2019-03-11T07:15:45.508Z,5.74
2019-03-11T07:16:45.557Z,5.67
2019-03-11T07:17:45.608Z,5.75
2019-03-11T07:18:45.659Z,5.77
2019-03-11T07:19:45.747Z,5.69
2019-03-11T07:20:45.775Z,5.74
2019-03-11T07:21:45.816Z,5.78
2019-03-11T07:22:45.868Z,5.81
2019-03-11T07:23:45.919Z,5.85
2019-03-11T07:24:45.971Z,5.77
2019-03-11T07:25:46.027Z,5.85
2019-03-11T07:26:46.074Z,5.93
2019-03-11T07:27:46.128Z,5.87
2019-03-11T07:28:46.180Z,5.96
2019-03-11T07:29:46.233Z,6.01
2019-03-11T07:30:46.286Z,6.14
2019-03-11T07:31:46.338Z,6.35
2019-03-11T07:32:46.387Z,6.25
2019-03-11T07:33:46.439Z,6.33
2019-03-11T07:34:46.491Z,6.28
2019-03-11T07:35:46.543Z,6.40
2019-03-11T07:36:46.596Z,6.46
2019-03-11T07:37:46.649Z,6.50
2019-03-11T07:38:46.705Z,6.58
2019-03-11T07:39:46.755Z,6.72
2019-03-11T07:40:46.805Z,6.81
2019-03-11T07:41:46.858Z,6.71
2019-03-11T07:42:46.926Z,6.72
2019-03-11T07:43:46.976Z,6.76
2019-03-11T07:44:47.019Z,6.83
2019-03-11T07:45:47.069Z,6.93
2019-03-11T07:46:47.122Z,6.90
2019-03-11T07:47:47.187Z,6.87
2019-03-11T07:48:47.230Z,7.11
2019-03-11T07:49:47.280Z,7.24
2019-03-11T07:50:47.333Z,7.39
2019-03-11T07:51:47.386Z,7.42
2019-03-11T07:52:47.439Z,7.36
2019-03-11T07:53:47.493Z,7.36
2019-03-11T07:54:47.547Z,7.37
2019-03-11T07:55:47.599Z,7.21
2019-03-11T07:56:47.653Z,7.12
2019-03-11T07:57:47.708Z,7.21
2019-03-11T07:58:47.765Z,7.21
2019-03-11T07:59:47.817Z,7.05
2019-03-11T08:00:53.989Z,7.05
2019-03-11T08:01:47.920Z,7.19
2019-03-11T08:02:47.977Z,7.33
2019-03-11T08:03:48.027Z,7.36
2019-03-11T08:04:48.082Z,7.30
2019-03-11T08:05:48.136Z,7.32
2019-03-11T08:06:48.187Z,7.33
2019-03-11T08:07:48.301Z,7.33
2019-03-11T08:08:48.300Z,7.23
2019-03-11T08:09:48.350Z,7.18
2019-03-11T08:10:48.404Z,7.11
2019-03-11T08:11:48.457Z,7.08
2019-03-11T08:12:48.512Z,6.99
2019-03-11T08:13:48.567Z,7.05
2019-03-11T08:14:48.620Z,6.91
2019-03-11T08:15:48.671Z,6.94
2019-03-11T08:16:48.728Z,6.97
2019-03-11T08:17:48.779Z,6.91
2019-03-11T08:18:48.833Z,6.87
2019-03-11T08:19:48.886Z,6.94
2019-03-11T08:20:48.941Z,6.86
2019-03-11T08:21:48.994Z,6.87
2019-03-11T08:22:49.046Z,6.82
2019-03-11T08:23:49.101Z,6.69
2019-03-11T08:24:49.154Z,6.64
2019-03-11T08:25:49.220Z,6.64
2019-03-11T08:26:49.260Z,6.68
2019-03-11T08:27:49.314Z,6.69
2019-03-11T08:28:49.376Z,6.83
2019-03-11T08:29:49.422Z,6.91
2019-03-11T08:30:49.475Z,6.87
2019-03-11T08:31:49.528Z,6.87
2019-03-11T08:32:49.582Z,6.82
2019-03-11T08:33:49.634Z,6.82
2019-03-11T08:34:49.997Z,6.71
2019-03-11T08:35:49.743Z,6.75
2019-03-11T08:36:49.793Z,6.71
2019-03-11T08:37:49.849Z,6.71
2019-03-11T08:38:49.903Z,6.68
2019-03-11T08:39:49.954Z,6.71
2019-03-11T08:40:50.316Z,6.65
2019-03-11T08:41:50.061Z,6.71
2019-03-11T08:42:50.117Z,6.72
2019-03-11T08:43:50.166Z,6.63
2019-03-11T08:44:50.225Z,6.65
2019-03-11T08:45:50.284Z,6.79
2019-03-11T08:46:50.327Z,6.68
2019-03-11T08:47:50.380Z,6.53
2019-03-11T08:48:50.436Z,6.57
2019-03-11T08:49:50.487Z,6.53
2019-03-11T08:50:50.542Z,6.61
2019-03-11T08:51:50.593Z,6.46
2019-03-11T08:52:50.652Z,6.42
2019-03-11T08:53:50.702Z,6.57
2019-03-11T08:54:50.753Z,6.54
2019-03-11T08:55:50.843Z,6.48
2019-03-11T08:56:50.860Z,6.50
2019-03-11T08:57:50.914Z,6.43
2019-03-11T08:58:50.966Z,6.39
2019-03-11T08:59:51.020Z,6.38
2019-03-11T09:00:51.072Z,6.46
2019-03-11T09:01:51.125Z,6.48
2019-03-11T09:02:51.179Z,6.45
2019-03-11T09:03:51.231Z,6.46
2019-03-11T09:04:51.285Z,6.35
2019-03-11T09:05:51.341Z,6.45
2019-03-11T09:06:51.391Z,6.40
2019-03-11T09:07:51.442Z,6.58
2019-03-11T09:08:51.497Z,6.63
2019-03-11T09:09:51.549Z,6.55
2019-03-11T09:10:51.601Z,6.71
2019-03-11T09:11:52.180Z,6.68
2019-03-11T09:12:51.709Z,6.78
2019-03-11T09:13:56.170Z,6.96
2019-03-11T09:14:51.811Z,7.04
2019-03-11T09:15:52.994Z,7.07
2019-03-11T09:16:51.934Z,7.07
2019-03-11T09:17:52.635Z,7.24
2019-03-11T09:18:52.025Z,7.32
2019-03-11T09:19:52.129Z,7.37
2019-03-11T09:20:52.130Z,7.39
2019-03-11T09:21:52.187Z,7.42
2019-03-11T09:22:52.244Z,7.32
2019-03-11T09:23:52.289Z,7.39
2019-03-11T09:24:52.343Z,7.51
2019-03-11T09:25:52.395Z,7.81
2019-03-11T09:26:52.449Z,7.92
2019-03-11T09:27:53.165Z,8.02
2019-03-11T09:28:52.557Z,8.13
2019-03-11T09:29:52.609Z,8.20
2019-03-11T09:30:53.180Z,8.10
2019-03-11T09:31:52.717Z,8.02
2019-03-11T09:32:52.776Z,7.88
2019-03-11T09:33:52.825Z,7.74
2019-03-11T09:34:52.881Z,7.82
2019-03-11T09:35:52.933Z,8.02
2019-03-11T09:36:52.988Z,8.06
2019-03-11T09:37:53.041Z,8.09
2019-03-11T09:38:53.096Z,8.18
2019-03-11T09:39:53.149Z,8.10
2019-03-11T09:40:53.203Z,8.09
2019-03-11T09:41:53.259Z,8.07
2019-03-11T09:42:53.313Z,8.20
2019-03-11T09:43:53.367Z,7.92
2019-03-11T09:44:53.432Z,8.02
2019-03-11T09:45:53.845Z,7.88
2019-03-11T09:46:53.531Z,7.91
2019-03-11T09:47:53.586Z,7.77
2019-03-11T09:48:53.641Z,7.81
2019-03-11T09:49:53.695Z,7.73
2019-03-11T09:50:53.750Z,7.62
2019-03-11T09:51:53.806Z,7.70
2019-03-11T09:52:53.862Z,7.79
2019-03-11T09:53:53.913Z,7.92
2019-03-11T09:54:53.967Z,8.02
2019-03-11T09:55:54.022Z,7.84
2019-03-11T09:56:54.077Z,7.84
2019-03-11T09:57:54.730Z,7.63
2019-03-11T09:58:54.185Z,7.50
2019-03-11T09:59:54.572Z,7.50
2019-03-11T10:00:54.303Z,7.62
2019-03-11T10:01:54.351Z,7.54
2019-03-11T10:02:54.402Z,7.39
2019-03-11T10:03:54.457Z,7.36
2019-03-11T10:04:54.511Z,7.36
2019-03-11T10:05:54.565Z,7.47
2019-03-11T10:06:54.619Z,7.66
2019-03-11T10:07:54.785Z,7.67
2019-03-11T10:08:54.727Z,7.66
2019-03-11T10:09:54.783Z,7.54
2019-03-11T10:10:54.838Z,7.55
2019-03-11T10:11:54.889Z,7.62
2019-03-11T10:12:54.946Z,7.52
2019-03-11T10:13:55.001Z,7.52
2019-03-11T10:14:55.053Z,7.54
2019-03-11T10:15:55.105Z,7.54
2019-03-11T10:16:55.160Z,7.60
2019-03-11T10:17:55.213Z,7.62
2019-03-11T10:18:55.268Z,7.55
2019-03-11T10:19:55.327Z,7.32
2019-03-11T10:20:55.382Z,7.47
2019-03-11T10:21:55.430Z,7.36
2019-03-11T10:22:55.484Z,7.34
2019-03-11T10:23:55.539Z,7.37
2019-03-11T10:24:55.592Z,7.41
2019-03-11T10:25:55.648Z,7.32
2019-03-11T10:26:55.701Z,7.39
2019-03-11T10:27:55.755Z,7.33
2019-03-11T10:28:55.809Z,7.36
2019-03-11T10:29:56.606Z,7.32
2019-03-11T10:30:55.917Z,7.36
2019-03-11T10:31:55.973Z,7.45
2019-03-11T10:32:56.025Z,7.47
2019-03-11T10:33:56.079Z,7.45
2019-03-11T10:34:56.134Z,7.60
2019-03-11T10:35:56.186Z,7.71
2019-03-11T10:36:56.243Z,7.67
2019-03-11T10:37:56.295Z,7.63
2019-03-11T10:38:56.349Z,7.73
2019-03-11T10:39:56.405Z,7.71
2019-03-11T10:40:56.458Z,7.74
2019-03-11T10:41:56.512Z,7.81
2019-03-11T10:42:56.563Z,7.99
2019-03-11T10:43:56.617Z,7.84
2019-03-11T10:44:56.673Z,7.81
2019-03-11T10:45:56.729Z,7.81
2019-03-11T10:46:56.779Z,7.91
2019-03-11T10:47:56.840Z,8.03
2019-03-11T10:48:56.888Z,8.06
2019-03-11T10:49:56.943Z,8.09
2019-03-11T10:50:57.104Z,8.24
2019-03-11T10:51:57.052Z,8.24
2019-03-11T10:52:57.115Z,8.28
2019-03-11T10:53:57.158Z,8.28
2019-03-11T10:54:57.304Z,8.28
2019-03-11T10:55:59.849Z,8.39
2019-03-11T10:56:57.322Z,8.60
2019-03-11T10:57:57.380Z,8.64
2019-03-11T10:58:57.430Z,8.58
2019-03-11T10:59:57.483Z,8.49
2019-03-11T11:00:57.537Z,8.63
2019-03-11T11:01:57.592Z,8.55
2019-03-11T11:02:57.650Z,8.58
2019-03-11T11:03:57.700Z,8.63
2019-03-11T11:04:57.755Z,8.57
2019-03-11T11:05:57.810Z,8.46
2019-03-11T11:06:57.865Z,8.37
2019-03-11T11:07:57.923Z,8.64
2019-03-11T11:08:57.972Z,8.76
2019-03-11T11:09:58.026Z,8.76
2019-03-11T11:10:58.083Z,8.93
2019-03-11T11:11:58.138Z,9.10
2019-03-11T11:12:58.194Z,9.03
2019-03-11T11:13:58.245Z,8.96
2019-03-11T11:14:58.301Z,8.78
2019-03-11T11:15:58.355Z,8.57
2019-03-11T11:16:58.413Z,8.32
2019-03-11T11:17:58.466Z,8.22
2019-03-11T11:18:58.520Z,8.32
2019-03-11T11:20:03.120Z,8.29
2019-03-11T11:20:58.631Z,8.31
2019-03-11T11:21:58.685Z,8.31
2019-03-11T11:22:58.740Z,8.42
2019-03-11T11:23:58.796Z,8.52
2019-03-11T11:24:58.849Z,8.47
2019-03-11T11:25:58.907Z,8.58
2019-03-11T11:26:59.551Z,8.31
2019-03-11T11:27:59.016Z,8.31
2019-03-11T11:28:59.739Z,8.50
2019-03-11T11:29:59.124Z,8.36
2019-03-11T11:30:59.178Z,8.43
2019-03-11T11:31:59.236Z,8.54
2019-03-11T11:32:59.288Z,8.37
2019-03-11T11:33:59.345Z,8.37
2019-03-11T11:34:59.400Z,8.37
2019-03-11T11:35:59.456Z,8.24
2019-03-11T11:36:59.509Z,8.28
2019-03-11T11:37:59.565Z,8.09
2019-03-11T11:38:59.618Z,8.10
2019-03-11T11:39:59.671Z,8.22
2019-03-11T11:40:59.728Z,8.21
2019-03-11T11:41:59.782Z,9.53
2019-03-11T11:42:59.837Z,10.43
2019-03-11T11:43:59.890Z,10.57
2019-03-11T11:44:59.946Z,11.06
2019-03-11T11:46:00.000Z,10.32
2019-03-11T11:47:00.055Z,9.59
2019-03-11T11:48:00.109Z,9.49
2019-03-11T11:49:00.169Z,8.85
2019-03-11T11:50:00.376Z,8.73
2019-03-11T11:51:00.276Z,8.78
2019-03-11T11:52:00.331Z,8.63
2019-03-11T11:53:00.894Z,8.89
2019-03-11T11:54:00.454Z,8.70
2019-03-11T11:55:01.048Z,8.83
2019-03-11T11:56:01.259Z,9.45
2019-03-11T11:57:00.616Z,9.26
2019-03-11T11:58:00.667Z,9.15
2019-03-11T11:59:00.724Z,9.16
2019-03-11T12:00:00.782Z,9.00
2019-03-11T12:01:00.834Z,8.82
2019-03-11T12:02:04.029Z,8.88
2019-03-11T12:03:01.003Z,8.89
2019-03-11T12:04:00.999Z,8.85
2019-03-11T12:05:01.052Z,8.91
2019-03-11T12:06:01.109Z,8.76
2019-03-11T12:07:01.479Z,8.75
2019-03-11T12:08:01.311Z,8.79
2019-03-11T12:09:01.272Z,8.79
2019-03-11T12:10:01.328Z,8.49
2019-03-11T12:11:01.389Z,8.40
2019-03-11T12:12:01.438Z,8.18
2019-03-11T12:13:01.893Z,8.13
2019-03-11T12:14:01.550Z,8.13
2019-03-11T12:15:01.602Z,8.17
2019-03-11T12:16:01.659Z,8.18
2019-03-11T12:17:01.718Z,8.25
2019-03-11T12:18:01.777Z,8.37
2019-03-11T12:19:01.829Z,8.43
2019-03-11T12:20:01.880Z,8.39
2019-03-11T12:21:01.938Z,8.46
2019-03-11T12:22:01.999Z,8.76
2019-03-11T12:23:02.352Z,8.73
2019-03-11T12:24:02.102Z,8.71
2019-03-11T12:25:02.154Z,8.47
2019-03-11T12:26:02.214Z,8.36
2019-03-11T12:27:02.270Z,8.55
2019-03-11T12:28:02.320Z,8.52
2019-03-11T12:29:02.408Z,8.55
2019-03-11T12:30:02.454Z,8.61
2019-03-11T12:31:02.519Z,8.61
2019-03-11T12:32:02.536Z,8.46
2019-03-11T12:33:02.592Z,8.09
2019-03-11T12:34:02.657Z,7.88
2019-03-11T12:35:02.710Z,8.98
2019-03-11T12:36:02.759Z,9.17
2019-03-11T12:37:02.818Z,9.65
2019-03-11T12:38:02.878Z,9.88
2019-03-11T12:39:02.922Z,10.18
2019-03-11T12:40:02.980Z,10.44
2019-03-11T12:41:03.046Z,10.39
2019-03-11T12:42:03.086Z,10.63
2019-03-11T12:43:03.143Z,10.62
2019-03-11T12:44:03.198Z,10.76
2019-03-11T12:45:03.254Z,11.63
2019-03-11T12:46:03.306Z,10.73
2019-03-11T12:47:03.370Z,9.93
2019-03-11T12:48:03.421Z,9.75
2019-03-11T12:49:03.473Z,10.38
2019-03-11T12:50:03.535Z,11.56
2019-03-11T12:51:03.603Z,11.54
2019-03-11T12:52:03.644Z,10.02
2019-03-11T12:53:03.721Z,10.83
2019-03-11T12:54:03.758Z,11.20
2019-03-11T12:55:03.812Z,11.77
2019-03-11T12:56:03.866Z,12.03
2019-03-11T12:57:04.594Z,10.49
2019-03-11T12:58:03.981Z,9.80
2019-03-11T12:59:04.035Z,10.04
2019-03-11T13:00:04.098Z,9.63
2019-03-11T13:01:04.459Z,9.40
2019-03-11T13:02:04.518Z,9.78
2019-03-11T13:03:04.269Z,9.70
2019-03-11T13:04:04.630Z,9.60
2019-03-11T13:05:04.381Z,9.60
2019-03-11T13:06:04.437Z,9.52
2019-03-11T13:07:04.490Z,9.35
2019-03-11T13:08:04.550Z,9.32
2019-03-11T13:09:04.606Z,9.24
2019-03-11T13:10:06.769Z,9.35
2019-03-11T13:11:04.718Z,10.14
2019-03-11T13:12:04.778Z,10.16
2019-03-11T13:13:04.837Z,9.63
2019-03-11T13:14:04.905Z,9.38
2019-03-11T13:15:04.940Z,9.31
2019-03-11T13:16:05.005Z,9.38
2019-03-11T13:17:05.060Z,9.44
2019-03-11T13:18:05.114Z,9.15